Time;durP1;ratioP1;P1;durP2;ratioP2;P2;SDS_P1;SDS_P2;PMS_P1;PMS_P2;Temp;Humidity;BMP_temperature;BMP_pressure;BME280_temperature;BME280_humidity;BME280_pressure;Samples;Min_cycle;Max_cycle;Signal;HPM_P1;HPM_P2
2021/11/29 00:00:49;;;;;;;76.82;31.75;;;;;;;6.88;100.00;98439.19;1690764;84;21073;-80
2021/11/29 00:03:19;;;;;;;75.22;31.10;;;;;;;6.90;100.00;98431.65;1680334;84;21505;-84
2021/11/29 00:05:46;;;;;;;78.42;33.33;;;;;;;6.91;100.00;98434.63;1668699;86;21084;-79
2021/11/29 00:08:13;;;;;;;75.80;33.40;;;;;;;6.90;100.00;98442.11;1670208;86;21122;-79
2021/11/29 00:10:40;;;;;;;69.97;31.33;;;;;;;6.92;100.00;98441.58;1667732;86;21540;-77
2021/11/29 00:13:09;;;;;;;71.70;32.38;;;;;;;6.92;100.00;98435.04;1667402;86;21109;-78
2021/11/29 00:15:36;;;;;;;69.67;31.80;;;;;;;6.93;100.00;98430.17;1667384;86;21076;-79
2021/11/29 00:18:04;;;;;;;61.05;27.60;;;;;;;6.92;100.00;98419.34;1667547;86;21064;-80
2021/11/29 00:20:36;;;;;;;;;;;;;;;6.94;100.00;98410.92;1674071;84;21126;-80
2021/11/29 00:23:04;;;;;;;65.55;29.18;;;;;;;6.96;100.00;98415.25;1692930;83;20186;-79
2021/11/29 00:25:33;;;;;;;55.63;26.48;;;;;;;6.94;100.00;98421.39;1695712;84;21025;-80
2021/11/29 00:28:01;;;;;;;61.15;27.67;;;;;;;6.94;100.00;98416.16;1695667;84;21076;-81
2021/11/29 00:30:28;;;;;;;55.70;25.40;;;;;;;6.94;100.00;98420.08;1695693;84;21562;-80
2021/11/29 00:32:56;;;;;;;69.70;34.38;;;;;;;6.94;100.00;98408.30;1695459;84;21048;-80
2021/11/29 00:35:25;;;;;;;46.35;23.98;;;;;;;6.98;100.00;98413.41;1695284;84;21056;-81
2021/11/29 00:37:54;;;;;;;51.63;25.62;;;;;;;7.00;100.00;98399.78;1695463;84;21104;-79
2021/11/29 00:40:23;;;;;;;51.23;24.80;;;;;;;7.04;100.00;98394.76;1667809;84;21068;-80
2021/11/29 00:42:50;;;;;;;54.13;26.05;;;;;;;7.04;100.00;98389.52;1695406;84;21064;-79
2021/11/29 00:45:18;;;;;;;48.90;23.10;;;;;;;7.07;100.00;98384.99;1667752;84;21525;-81
2021/11/29 00:47:45;;;;;;;57.88;27.13;;;;;;;7.09;100.00;98374.45;1695507;84;21081;-80
2021/11/29 00:50:13;;;;;;;57.27;27.32;;;;;;;7.12;100.00;98371.67;1695526;84;21141;-80
2021/11/29 00:52:41;;;;;;;49.73;23.67;;;;;;;7.15;100.00;98370.20;1695238;84;21091;-80
2021/11/29 00:55:09;;;;;;;51.40;25.20;;;;;;;7.18;100.00;98365.27;1690522;82;21063;-80
2021/11/29 00:57:37;;;;;;;52.78;27.48;;;;;;;7.19;100.00;98356.03;1706508;84;21531;-80
2021/11/29 01:00:07;;;;;;;53.95;26.82;;;;;;;7.20;100.00;98355.13;1743589;82;21896;-79
2021/11/29 01:02:34;;;;;;;48.10;23.70;;;;;;;7.22;100.00;98351.09;1719153;83;21088;-80
2021/11/29 01:05:00;;;;;;;41.68;22.77;;;;;;;7.23;100.00;98337.94;1719184;83;21065;-78
2021/11/29 01:07:27;;;;;;;57.90;30.32;;;;;;;7.25;100.00;98338.70;1719062;82;21096;-78
2021/11/29 01:09:54;;;;;;;51.63;25.65;;;;;;;7.26;100.00;98331.69;1728478;82;21145;-78
2021/11/29 01:12:21;;;;;;;49.35;24.70;;;;;;;7.28;100.00;98324.13;1738477;82;21018;-81
2021/11/29 01:14:48;;;;;;;56.88;28.05;;;;;;;7.27;100.00;98322.45;1738496;82;21002;-79
2021/11/29 01:17:15;;;;;;;50.48;25.05;;;;;;;7.28;100.00;98321.52;1732169;82;21553;-82
2021/11/29 01:19:43;;;;;;;51.70;24.70;;;;;;;7.29;100.00;98317.98;1738785;82;21580;-81
2021/11/29 01:22:10;;;;;;;49.20;24.87;;;;;;;7.31;100.00;98316.58;1738565;82;21145;-82
2021/11/29 01:24:36;;;;;;;58.17;27.80;;;;;;;7.32;100.00;98316.51;1738871;82;21097;-84
2021/11/29 01:27:04;;;;;;;56.02;26.77;;;;;;;7.33;100.00;98318.19;1739309;82;21644;-84
2021/11/29 01:29:33;;;;;;;50.35;27.07;;;;;;;7.34;100.00;98319.89;1739040;82;21136;-81
2021/11/29 01:31:59;;;;;;;47.73;24.82;;;;;;;7.34;100.00;98319.89;1738573;82;21038;-81
2021/11/29 01:34:26;;;;;;;48.78;23.90;;;;;;;7.37;100.00;98311.50;1738852;82;22104;-81
2021/11/29 01:36:52;;;;;;;45.38;21.82;;;;;;;7.37;100.00;98302.33;1738509;82;21508;-80
2021/11/29 01:39:19;;;;;;;54.75;26.68;;;;;;;7.39;100.00;98295.24;1738761;82;21610;-81
2021/11/29 01:41:46;;;;;;;46.63;24.07;;;;;;;7.41;100.00;98301.22;1738667;82;21092;-81
2021/11/29 01:44:13;;;;;;;38.23;20.77;;;;;;;7.39;100.00;98297.86;1738886;82;21049;-82
2021/11/29 01:46:39;;;;;;;48.70;25.23;;;;;;;7.39;100.00;98284.30;1723460;82;21211;-80
2021/11/29 01:49:06;;;;;;;54.95;26.12;;;;;;;7.40;100.00;98286.45;1709684;83;21046;-82
2021/11/29 01:51:33;;;;;;;43.87;21.82;;;;;;;7.40;100.00;98290.38;1709055;83;21023;-80
2021/11/29 01:53:59;;;;;;;56.90;29.65;;;;;;;7.42;100.00;98289.83;1709466;83;21082;-79
2021/11/29 01:56:26;;;;;;;53.23;25.82;;;;;;;7.43;100.00;98279.72;1716788;81;21393;-80
2021/11/29 01:58:53;;;;;;;45.43;23.55;;;;;;;7.44;100.00;98277.50;1720322;83;21202;-80
2021/11/29 02:01:21;;;;;;;47.90;24.82;;;;;;;7.43;100.00;98275.80;1729180;82;21383;-79
2021/11/29 02:03:51;;;;;;;44.35;22.25;;;;;;;7.42;100.00;98267.10;1739045;82;21038;-80
2021/11/29 02:06:18;;;;;;;44.05;24.23;;;;;;;7.42;100.00;98271.03;1738373;82;21069;-80
2021/11/29 02:08:45;;;;;;;47.43;24.92;;;;;;;7.42;100.00;98266.27;1739096;82;21096;-79
2021/11/29 02:11:11;;;;;;;49.65;26.02;;;;;;;7.42;100.00;98263.17;1738495;82;22304;-79
2021/11/29 02:13:40;;;;;;;44.58;21.60;;;;;;;7.43;100.00;98257.46;1738483;82;21606;-78
2021/11/29 02:16:07;;;;;;;46.55;23.12;;;;;;;7.43;100.00;98249.61;1738391;82;21532;-79
2021/11/29 02:18:34;;;;;;;44.75;21.93;;;;;;;7.43;100.00;98249.16;1738752;82;21097;-79
2021/11/29 02:21:14;;;;;;;43.83;22.73;;;;;;;7.43;100.00;98247.86;1738330;82;21077;-78
2021/11/29 02:23:52;;;;;;;44.15;22.40;;;;;;;7.44;100.00;98247.39;1738578;82;21152;-80
2021/11/29 02:26:21;;;;;;;44.60;23.87;;;;;;;7.43;100.00;98240.44;1738310;82;21062;-83
2021/11/29 02:28:56;;;;;;;32.65;17.15;;;;;;;7.45;100.00;98239.89;1739320;82;21026;-80
2021/11/29 02:31:31;;;;;;;32.88;17.05;;;;;;;7.44;100.00;98235.13;1731518;82;21051;-80
2021/11/29 02:33:57;;;;;;;33.20;17.73;;;;;;;7.46;100.00;98234.58;1740080;82;21671;-81
2021/11/29 02:36:24;;;;;;;39.35;20.55;;;;;;;7.47;100.00;98241.50;1739317;82;21084;-81
2021/11/29 02:38:51;;;;;;;36.42;19.62;;;;;;;7.49;100.00;98236.19;1739565;82;21048;-80
2021/11/29 02:41:18;;;;;;;38.08;20.45;;;;;;;7.50;100.00;98238.73;1741226;82;21369;-80
2021/11/29 02:43:45;;;;;;;38.42;19.90;;;;;;;7.51;100.00;98236.95;1741244;82;21733;-82
2021/11/29 02:46:13;;;;;;;37.25;21.30;;;;;;;7.52;100.00;98225.09;1741110;82;22231;-83
2021/11/29 02:48:46;;;;;;;37.67;20.00;;;;;;;7.53;100.00;98219.38;1740976;82;21110;-81
2021/11/29 02:51:30;;;;;;;37.90;19.48;;;;;;;7.53;100.00;98220.69;1739906;82;21438;-79
2021/11/29 02:54:05;;;;;;;34.30;19.98;;;;;;;7.52;100.00;98208.50;1731992;80;21061;-80
2021/11/29 02:56:36;;;;;;;34.38;17.30;;;;;;;7.51;100.00;98208.98;1698557;83;21136;-80
2021/11/29 02:59:01;;;;;;;31.68;18.17;;;;;;;7.52;100.00;98204.58;1699272;82;21524;-80
2021/11/29 03:01:27;;;;;;;33.88;18.23;;;;;;;7.49;100.00;98199.52;1698750;83;21110;-79
2021/11/29 03:03:54;;;;;;;31.77;17.77;;;;;;;7.49;100.00;98195.59;1698911;84;21293;-79
2021/11/29 03:06:21;;;;;;;27.65;14.85;;;;;;;7.48;100.00;98190.83;1699040;84;21037;-80
2021/11/29 03:08:47;;;;;;;30.88;17.52;;;;;;;7.49;100.00;98186.42;1699122;84;21076;-84
2021/11/29 03:11:18;;;;;;;29.72;17.57;;;;;;;7.49;100.00;98179.87;1700271;84;21028;-83
2021/11/29 03:13:45;;;;;;;30.97;17.73;;;;;;;7.49;100.00;98175.95;1729082;82;21002;-83
2021/11/29 03:16:12;;;;;;;26.75;15.98;;;;;;;7.51;100.00;98175.40;1700696;83;21014;-82
2021/11/29 03:18:44;;;;;;;29.60;16.95;;;;;;;7.53;100.00;98168.30;1700064;83;21072;-80
2021/11/29 03:21:16;;;;;;;26.37;16.27;;;;;;;7.53;100.00;98166.52;1700059;84;22207;-82
2021/11/29 03:23:49;;;;;;;29.65;16.05;;;;;;;7.55;100.00;98155.97;1699523;84;21052;-82
2021/11/29 03:26:18;;;;;;;26.35;15.45;;;;;;;7.54;100.00;98150.33;1699318;84;21369;-83
2021/11/29 03:29:47;;;;;;;30.55;16.40;;;;;;;7.62;100.00;98150.77;1814036;79;28267;-82
2021/11/29 03:32:14;;;;;;;32.78;17.32;;;;;;;7.58;100.00;98151.86;1786912;80;21024;-84
2021/11/29 03:34:41;;;;;;;37.78;18.92;;;;;;;7.59;100.00;98141.74;1787036;80;21167;-79
2021/11/29 03:37:07;;;;;;;30.60;17.77;;;;;;;7.55;100.00;98142.40;1786815;80;21055;-79
2021/11/29 03:39:34;;;;;;;34.25;18.87;;;;;;;7.57;100.00;98147.56;1786981;80;21084;-80
2021/11/29 03:42:05;;;;;;;30.10;17.37;;;;;;;7.54;100.00;98135.92;1786763;80;20994;-80
2021/11/29 03:44:33;;;;;;;;;;;;;;;7.53;100.00;98126.39;1789939;80;21060;-78
2021/11/29 03:47:00;;;;;;;32.88;18.00;;;;;;;7.53;100.00;98119.84;1786938;80;21099;-78
2021/11/29 03:49:26;;;;;;;34.65;17.90;;;;;;;7.50;100.00;98118.69;1787105;80;21607;-78
2021/11/29 03:51:54;;;;;;;34.67;18.12;;;;;;;7.48;100.00;98110.94;1786678;80;21032;-77
2021/11/29 03:54:21;;;;;;;34.00;18.40;;;;;;;7.49;100.00;98111.77;1762871;80;21108;-79
2021/11/29 03:56:47;;;;;;;30.95;17.32;;;;;;;7.46;100.00;98106.72;1755577;81;21057;-79
2021/11/29 03:59:14;;;;;;;31.95;17.20;;;;;;;7.48;100.00;98107.48;1755981;81;21584;-80
2021/11/29 04:01:44;;;;;;;33.53;18.05;;;;;;;7.49;100.00;98099.99;1755661;81;21015;-79
2021/11/29 04:04:13;;;;;;;34.20;16.67;;;;;;;7.50;100.00;98095.12;1756166;81;21203;-80
2021/11/29 04:06:45;;;;;;;33.13;18.10;;;;;;;7.50;100.00;98095.12;1755659;81;21643;-79
2021/11/29 04:09:12;;;;;;;32.13;18.50;;;;;;;7.50;100.00;98099.05;1756335;81;21576;-79
2021/11/29 04:11:38;;;;;;;34.18;17.37;;;;;;;7.51;100.00;98091.59;1756237;81;21609;-80
2021/11/29 04:14:06;;;;;;;45.23;19.98;;;;;;;7.51;100.00;98082.42;1757578;81;21034;-80
2021/11/29 04:16:32;;;;;;;35.88;19.82;;;;;;;7.50;100.00;98085.95;1759738;81;21113;-78
2021/11/29 04:19:03;;;;;;;35.10;19.40;;;;;;;7.49;100.00;98075.95;1759951;81;21023;-81
2021/11/29 04:21:36;;;;;;;36.17;19.27;;;;;;;7.50;100.00;98078.09;1756503;81;20924;-79
2021/11/29 04:24:05;;;;;;;41.20;21.17;;;;;;;7.50;100.00;98075.47;1763706;81;21601;-80
2021/11/29 04:26:35;;;;;;;35.05;18.98;;;;;;;7.52;100.00;98066.63;1771310;81;22186;-77
2021/11/29 04:29:08;;;;;;;35.60;18.98;;;;;;;7.52;100.00;98057.89;1763333;81;21078;-79
2021/11/29 04:31:34;;;;;;;28.92;14.93;;;;;;;7.52;100.00;98050.04;1757874;81;21031;-80
2021/11/29 04:34:00;;;;;;;29.98;17.23;;;;;;;7.53;100.00;98051.75;1758188;81;21046;-79
2021/11/29 04:36:29;;;;;;;29.90;17.42;;;;;;;7.54;100.00;98046.88;1758475;81;21721;-81
2021/11/29 04:38:55;;;;;;;30.65;16.70;;;;;;;7.55;100.00;98048.10;1758784;81;21038;-80
2021/11/29 04:41:24;;;;;;;24.15;14.65;;;;;;;7.56;100.00;98051.56;1758399;81;21050;-81
2021/11/29 04:43:50;;;;;;;26.80;15.93;;;;;;;7.59;100.00;98053.98;1758463;81;21081;-79
2021/11/29 04:46:20;;;;;;;26.65;16.85;;;;;;;7.59;100.00;98046.12;1758859;81;21007;-85
2021/11/29 04:48:50;;;;;;;27.17;16.10;;;;;;;7.61;100.00;98048.20;1741774;81;21150;-76
2021/11/29 04:51:19;;;;;;;24.02;14.00;;;;;;;7.62;100.00;98047.28;1740887;81;21575;-70
2021/11/29 04:53:47;;;;;;;26.70;15.68;;;;;;;7.62;100.00;98048.59;1732512;82;21616;-71
2021/11/29 04:56:17;;;;;;;28.00;16.02;;;;;;;7.64;100.00;98045.42;1737445;82;21102;-69
2021/11/29 04:58:46;;;;;;;26.30;15.43;;;;;;;7.67;100.00;98057.02;1734989;82;21053;-70
2021/11/29 05:01:13;;;;;;;29.25;17.25;;;;;;;7.66;100.00;98046.62;1734381;81;21186;-72
2021/11/29 05:03:39;;;;;;;27.13;16.70;;;;;;;7.66;100.00;98047.48;1736535;82;21117;-69
2021/11/29 05:06:08;;;;;;;26.93;16.67;;;;;;;7.69;100.00;98045.98;1730674;82;21093;-70
2021/11/29 05:08:35;;;;;;;27.98;17.45;;;;;;;7.70;100.00;98052.91;1712066;82;21125;-69
2021/11/29 05:11:03;;;;;;;28.47;18.07;;;;;;;7.66;100.00;98038.32;1731026;82;21050;-71
2021/11/29 05:13:30;;;;;;;26.02;17.75;;;;;;;7.67;100.00;98035.23;1730824;82;21134;-70
2021/11/29 05:15:56;;;;;;;27.05;18.20;;;;;;;7.69;100.00;98036.82;1731157;82;21109;-70
2021/11/29 05:18:23;;;;;;;25.43;16.35;;;;;;;7.69;100.00;98023.72;1730969;82;21016;-71
2021/11/29 05:20:52;;;;;;;31.30;18.82;;;;;;;7.73;100.00;98028.30;1730728;82;21105;-70
2021/11/29 05:23:18;;;;;;;26.68;17.90;;;;;;;7.73;100.00;98018.68;1732875;82;21105;-71
2021/11/29 05:25:45;;;;;;;23.62;14.03;;;;;;;7.77;100.00;98022.78;1732488;82;21497;-70
2021/11/29 05:28:12;;;;;;;26.42;16.02;;;;;;;7.80;100.00;98009.13;1740464;81;21043;-69
2021/11/29 05:30:41;;;;;;;24.00;15.95;;;;;;;7.82;100.00;98009.88;1755207;81;21037;-70
2021/11/29 05:33:11;;;;;;;25.62;17.87;;;;;;;7.82;100.00;98004.64;1755046;81;21085;-71
2021/11/29 05:35:38;;;;;;;26.02;17.15;;;;;;;7.83;100.00;98007.18;1755374;81;21828;-69
2021/11/29 05:38:05;;;;;;;23.42;15.32;;;;;;;7.85;100.00;98016.27;1755250;81;21137;-70
2021/11/29 05:40:33;;;;;;;29.65;20.05;;;;;;;7.85;100.00;98007.94;1755144;81;21504;-70
2021/11/29 05:42:59;;;;;;;29.45;19.07;;;;;;;7.87;100.00;98015.72;1755470;81;21029;-70
2021/11/29 05:45:25;;;;;;;29.60;20.02;;;;;;;7.88;100.00;98018.70;1755650;81;21153;-69
2021/11/29 05:47:54;;;;;;;35.20;23.27;;;;;;;7.89;100.00;98026.48;1751598;81;21110;-71
2021/11/29 05:50:21;;;;;;;32.10;20.00;;;;;;;7.90;100.00;98014.21;1752335;81;21149;-69
2021/11/29 05:52:48;;;;;;;35.60;21.95;;;;;;;7.92;100.00;98022.83;1750640;81;21141;-70
2021/11/29 05:55:15;;;;;;;33.65;20.75;;;;;;;7.92;100.00;98029.38;1754988;81;21042;-69
2021/11/29 05:57:49;;;;;;;31.17;19.50;;;;;;;7.89;100.00;98024.30;1753586;81;21145;-70
2021/11/29 06:00:18;;;;;;;33.65;20.12;;;;;;;7.89;100.00;98013.82;1751147;81;21019;-69
2021/11/29 06:02:48;;;;;;;34.25;19.37;;;;;;;7.83;100.00;98011.59;1756884;81;21572;-70
2021/11/29 06:05:15;;;;;;;29.52;20.27;;;;;;;7.80;100.00;98011.75;1749679;81;21085;-70
2021/11/29 06:07:42;;;;;;;31.20;19.60;;;;;;;7.78;100.00;98004.83;1754104;81;21066;-70
2021/11/29 06:10:10;;;;;;;33.18;20.68;;;;;;;7.81;100.00;98005.59;1754950;81;21093;-70
2021/11/29 06:12:37;;;;;;;30.92;20.43;;;;;;;7.81;100.00;97992.48;1754603;81;21055;-71
2021/11/29 06:15:08;;;;;;;41.85;20.60;;;;;;;7.86;100.00;97993.05;1755075;81;21068;-70
2021/11/29 06:17:37;;;;;;;32.50;20.17;;;;;;;7.89;100.00;98003.34;1754740;81;21101;-69
2021/11/29 06:20:07;;;;;;;34.40;19.65;;;;;;;7.92;100.00;97997.45;1755024;81;21038;-70
2021/11/29 06:22:34;;;;;;;34.83;22.17;;;;;;;7.94;100.00;97991.66;1754946;81;21054;-69
2021/11/29 06:25:00;;;;;;;39.50;21.40;;;;;;;7.94;100.00;97996.06;1754174;80;21559;-70
2021/11/29 06:27:28;;;;;;;33.55;20.35;;;;;;;7.93;100.00;97989.95;1753575;80;21127;-69
2021/11/29 06:29:55;;;;;;;32.63;20.82;;;;;;;7.93;100.00;97993.89;1733823;81;21595;-70
2021/11/29 06:32:25;;;;;;;37.30;21.42;;;;;;;7.95;100.00;97996.42;1736116;81;21576;-70
2021/11/29 06:34:52;;;;;;;36.28;20.08;;;;;;;7.96;100.00;97988.95;1733956;81;21074;-69
2021/11/29 06:37:18;;;;;;;35.13;20.65;;;;;;;7.95;100.00;97988.56;1742019;81;21079;-69
2021/11/29 06:39:47;;;;;;;35.65;22.75;;;;;;;7.97;100.00;97994.55;1737567;81;21524;-70
2021/11/29 06:42:14;;;;;;;34.92;21.57;;;;;;;7.94;100.00;97992.13;1741666;81;21683;-70
2021/11/29 06:44:41;;;;;;;38.17;22.73;;;;;;;7.96;100.00;97981.09;1733576;81;21072;-67
2021/11/29 06:47:08;;;;;;;32.85;21.60;;;;;;;7.95;100.00;97979.39;1737641;81;21592;-69
2021/11/29 06:49:35;;;;;;;32.63;22.70;;;;;;;7.96;100.00;97982.41;1737557;81;21039;-69
2021/11/29 06:52:04;;;;;;;40.38;22.37;;;;;;;7.96;100.00;97976.69;1737906;81;21505;-69
2021/11/29 06:54:36;;;;;;;39.67;22.27;;;;;;;7.98;100.00;97963.47;1736292;81;21091;-69
2021/11/29 06:57:04;;;;;;;33.80;20.27;;;;;;;8.02;100.00;97964.13;1734477;81;21074;-68
2021/11/29 06:59:34;;;;;;;45.67;22.47;;;;;;;8.02;100.00;97951.86;1734928;81;21059;-69
2021/11/29 07:02:03;;;;;;;42.95;24.18;;;;;;;7.99;100.00;97946.82;1727130;81;22285;-69
2021/11/29 07:04:30;;;;;;;40.17;22.82;;;;;;;8.02;100.00;97950.55;1736046;81;21078;-68
2021/11/29 07:06:58;;;;;;;38.80;23.55;;;;;;;8.03;100.00;97946.14;1739462;81;20991;-69
2021/11/29 07:09:26;;;;;;;59.42;31.77;;;;;;;8.04;100.00;97930.81;1740860;81;21062;-68
2021/11/29 07:11:53;;;;;;;39.83;23.52;;;;;;;8.05;100.00;97926.80;1731918;81;21069;-69
2021/11/29 07:14:21;;;;;;;37.88;23.10;;;;;;;8.09;100.00;97915.63;1734800;81;21102;-68
2021/11/29 07:16:47;;;;;;;39.18;22.85;;;;;;;8.11;100.00;97913.28;1759341;81;21446;-69
2021/11/29 07:19:18;;;;;;;33.48;20.20;;;;;;;8.09;100.00;97905.98;1757604;81;21026;-68
2021/11/29 07:21:46;;;;;;;38.25;22.62;;;;;;;8.11;100.00;97896.25;1754530;81;21065;-67
2021/11/29 07:24:12;;;;;;;37.45;22.30;;;;;;;8.15;100.00;97887.25;1747484;81;21043;-67
2021/11/29 07:26:43;;;;;;;37.48;21.90;;;;;;;8.16;100.00;97879.75;1719148;81;21046;-68
2021/11/29 07:29:12;;;;;;;37.35;23.92;;;;;;;8.18;100.00;97881.81;1709466;82;21216;-69
2021/11/29 07:31:39;;;;;;;46.73;27.22;;;;;;;8.24;100.00;97878.45;1708853;83;21077;-68
2021/11/29 07:34:06;;;;;;;42.55;24.70;;;;;;;8.28;100.00;97883.84;1693280;83;21303;-69
2021/11/29 07:36:33;;;;;;;42.38;24.60;;;;;;;8.31;100.00;97877.12;1719485;83;21144;-67
2021/11/29 07:39:01;;;;;;;42.23;23.77;;;;;;;8.36;100.00;97866.69;1657835;85;21032;-67
2021/11/29 07:41:27;;;;;;;48.02;28.20;;;;;;;8.40;100.00;97864.77;1696754;83;21154;-68
2021/11/29 07:43:54;;;;;;;35.05;22.00;;;;;;;8.44;100.00;97861.45;1710587;83;21047;-68
2021/11/29 07:46:20;;;;;;;40.65;22.98;;;;;;;8.47;100.00;97866.05;1692456;83;21042;-68
2021/11/29 07:48:49;;;;;;;37.08;22.10;;;;;;;8.53;100.00;97863.00;1701435;83;21101;-69
2021/11/29 07:51:18;;;;;;;37.35;22.65;;;;;;;8.56;100.00;97865.45;1711983;83;21096;-69
2021/11/29 07:53:47;;;;;;;57.93;29.52;;;;;;;8.60;100.00;97864.31;1713718;83;21121;-68
2021/11/29 07:56:14;;;;;;;42.95;24.80;;;;;;;8.61;100.00;97862.53;1702328;83;21105;-69
2021/11/29 07:58:40;;;;;;;42.50;24.05;;;;;;;8.61;100.00;97856.80;1711035;82;21638;-67
2021/11/29 08:01:08;;;;;;;46.75;25.62;;;;;;;8.64;100.00;97857.55;1747163;81;21105;-67
2021/11/29 08:03:35;;;;;;;51.65;28.00;;;;;;;8.64;100.00;97855.75;1741351;81;21183;-69
2021/11/29 08:06:02;;;;;;;47.93;22.95;;;;;;;8.65;100.00;97852.66;1749533;80;21078;-70
2021/11/29 08:08:30;;;;;;;41.35;25.27;;;;;;;8.58;100.00;97821.59;1749445;82;21050;-68
2021/11/29 08:10:56;;;;;;;52.10;28.32;;;;;;;8.67;100.00;97836.34;1749606;82;21093;-68
2021/11/29 08:13:23;;;;;;;37.85;22.67;;;;;;;8.67;100.00;97837.66;1749534;82;21049;-69
2021/11/29 08:15:50;;;;;;;49.18;26.52;;;;;;;8.66;100.00;97828.12;1749835;82;21058;-70
2021/11/29 08:18:19;;;;;;;60.80;30.40;;;;;;;8.68;100.00;97814.42;1749891;82;21527;-70
2021/11/29 08:20:47;;;;;;;44.58;24.63;;;;;;;8.67;100.00;97810.11;1748058;82;21575;-69
2021/11/29 08:23:14;;;;;;;42.33;22.85;;;;;;;8.69;100.00;97802.98;1746421;81;21554;-71
2021/11/29 08:25:41;;;;;;;48.23;27.75;;;;;;;8.70;100.00;97798.11;1747471;81;21039;-72
2021/11/29 08:28:10;;;;;;;37.88;22.22;;;;;;;8.73;100.00;97803.15;1748068;81;21049;-72
2021/11/29 08:30:39;;;;;;;36.83;21.45;;;;;;;8.76;100.00;97793.75;1706473;81;21100;-71
2021/11/29 08:33:12;;;;;;;39.55;22.13;;;;;;;8.77;100.00;97794.14;1681857;83;21065;-70
2021/11/29 08:35:39;;;;;;;28.83;18.40;;;;;;;8.77;100.00;97791.03;1688846;83;21084;-72
2021/11/29 08:38:07;;;;;;;41.63;23.27;;;;;;;8.81;100.00;97775.91;1696844;83;21101;-71
2021/11/29 08:40:35;;;;;;;37.90;20.65;;;;;;;8.82;100.00;97772.35;1697760;83;21144;-71
2021/11/29 08:43:11;;;;;;;38.85;21.82;;;;;;;8.83;100.00;97775.33;1699286;83;21656;-70
2021/11/29 08:45:38;;;;;;;64.70;30.10;;;;;;;8.83;100.00;97755.64;1703453;83;21042;-69
2021/11/29 08:48:08;;;;;;;38.58;21.73;;;;;;;8.86;100.00;97748.91;1696858;83;21062;-70
2021/11/29 08:50:35;;;;;;;44.10;22.60;;;;;;;8.85;100.00;97747.20;1696807;83;21121;-71
2021/11/29 08:53:05;;;;;;;44.10;23.55;;;;;;;8.87;100.00;97737.92;1693834;83;21131;-71
2021/11/29 08:55:32;;;;;;;49.63;24.12;;;;;;;8.89;100.00;97738.66;1693738;83;21085;-71
2021/11/29 08:57:59;;;;;;;44.77;23.92;;;;;;;8.89;100.00;97722.91;1696753;83;21085;-71
2021/11/29 09:00:27;;;;;;;47.93;23.10;;;;;;;8.89;100.00;97713.73;1686402;83;21660;-71
2021/11/29 09:02:58;;;;;;;42.80;23.67;;;;;;;8.89;100.00;97705.38;1690866;83;21034;-72
2021/11/29 09:05:26;;;;;;;46.13;22.93;;;;;;;8.88;100.00;97696.28;1710138;83;21056;-70
2021/11/29 09:07:52;;;;;;;41.85;22.65;;;;;;;8.87;100.00;97687.58;1686910;83;21538;-72
2021/11/29 09:10:24;;;;;;;47.03;27.15;;;;;;;8.87;100.00;97698.08;1682566;83;21137;-70
2021/11/29 09:12:51;;;;;;;70.20;34.80;;;;;;;8.87;100.00;97676.24;1708930;83;21199;-71
2021/11/29 09:15:22;;;;;;;96.82;43.90;;;;;;;8.85;100.00;97661.91;1703937;83;21062;-73
2021/11/29 09:17:52;;;;;;;77.72;34.35;;;;;;;8.85;100.00;97660.59;1699102;83;21616;-71
2021/11/29 09:20:23;;;;;;;75.05;33.70;;;;;;;8.84;100.00;97644.49;1710133;83;21544;-72
2021/11/29 09:22:52;;;;;;;74.20;34.15;;;;;;;8.84;100.00;97636.63;1700037;83;21137;-71
2021/11/29 09:25:22;;;;;;;75.65;35.23;;;;;;;8.85;100.00;97639.59;1687956;83;21535;-71
2021/11/29 09:27:51;;;;;;;59.88;29.18;;;;;;;8.85;100.00;97626.95;1704693;83;21106;-71
2021/11/29 09:30:18;;;;;;;52.53;27.65;;;;;;;8.81;100.00;97625.00;1715804;82;21061;-71
2021/11/29 09:32:45;;;;;;;70.95;31.20;;;;;;;8.85;100.00;97621.22;1728348;82;21128;-71
2021/11/29 09:35:15;;;;;;;69.72;30.72;;;;;;;8.88;100.00;97623.66;1722580;82;21093;-72
2021/11/29 09:37:42;;;;;;;46.37;25.00;;;;;;;8.88;100.00;97614.47;1724626;82;21190;-71
2021/11/29 09:40:19;;;;;;;57.05;27.27;;;;;;;8.89;100.00;97612.20;1701690;83;21003;-71
2021/11/29 09:42:49;;;;;;;72.37;33.85;;;;;;;8.91;100.00;97599.81;1707507;82;21097;-70
2021/11/29 09:45:21;;;;;;;54.23;27.37;;;;;;;8.95;100.00;97598.65;1717946;82;21053;-71
2021/11/29 09:47:49;;;;;;;49.25;24.75;;;;;;;8.96;100.00;97592.44;1702617;82;21002;-70
2021/11/29 09:50:15;;;;;;;55.70;26.82;;;;;;;8.99;100.00;97584.33;1725251;82;21117;-70
2021/11/29 09:52:42;;;;;;;60.30;28.27;;;;;;;9.01;100.00;97577.19;1733457;82;21053;-70
2021/11/29 09:55:12;;;;;;;66.40;29.15;;;;;;;9.04;100.00;97573.50;1740674;82;21089;-69
2021/11/29 09:57:41;;;;;;;50.03;24.27;;;;;;;9.07;100.00;97559.35;1681687;83;21150;-69
2021/11/29 10:00:12;;;;;;;46.83;26.77;;;;;;;9.09;100.00;97552.17;1688164;83;22177;-70
2021/11/29 10:02:39;;;;;;;49.85;24.55;;;;;;;9.12;100.00;97544.09;1693055;81;21067;-68
2021/11/29 10:05:07;;;;;;;46.18;25.02;;;;;;;9.18;100.00;97538.41;1709441;82;21089;-69
2021/11/29 10:07:45;;;;;;;44.05;23.57;;;;;;;9.24;100.00;97528.27;1733340;81;21104;-70
2021/11/29 10:10:28;;;;;;;36.95;20.60;;;;;;;9.29;100.00;97505.61;1721559;82;21094;-70
2021/11/29 10:13:03;;;;;;;41.92;23.32;;;;;;;9.34;100.00;97507.45;1702361;83;21611;-70
2021/11/29 10:15:34;;;;;;;40.45;22.87;;;;;;;9.39;100.00;97496.12;1705076;82;21012;-71
2021/11/29 10:18:18;;;;;;;42.10;24.93;;;;;;;9.46;100.00;97484.68;1709733;81;21100;-69
2021/11/29 10:21:09;;;;;;;37.90;23.30;;;;;;;9.50;100.00;97485.27;1708679;82;21045;-69
2021/11/29 10:23:40;;;;;;;47.03;26.30;;;;;;;9.56;100.00;97493.54;1699624;82;22035;-70
2021/11/29 10:26:19;;;;;;;38.88;24.90;;;;;;;9.60;100.00;97498.93;1739183;82;21030;-70
2021/11/29 10:28:55;;;;;;;47.03;25.65;;;;;;;9.61;100.00;97501.08;1719534;82;21181;-68
2021/11/29 10:31:23;;;;;;;41.50;23.85;;;;;;;9.62;100.00;97502.77;1747848;81;21608;-69
2021/11/29 10:34:00;;;;;;;33.35;20.88;;;;;;;9.63;100.00;97507.05;1746485;80;21452;-69
2021/11/29 10:36:32;;;;;;;41.30;24.07;;;;;;;9.62;100.00;97492.25;1750419;80;21137;-69
2021/11/29 10:39:02;;;;;;;47.00;25.60;;;;;;;9.61;100.00;97480.05;1754194;80;21110;-69
2021/11/29 10:41:34;;;;;;;45.45;25.72;;;;;;;9.62;100.00;97468.61;1748574;80;25636;-68
2021/11/29 10:44:02;;;;;;;38.67;23.57;;;;;;;9.62;100.00;97461.55;1745401;80;21113;-69
2021/11/29 10:46:35;;;;;;;39.40;22.60;;;;;;;9.63;100.00;97458.44;1749851;80;21632;-70
2021/11/29 10:49:13;;;;;;;39.98;24.45;;;;;;;9.60;100.00;97450.80;1751695;80;21123;-68
2021/11/29 10:51:43;;;;;;;39.58;23.62;;;;;;;9.62;100.00;97446.27;1748627;80;21081;-69
2021/11/29 10:54:17;;;;;;;40.00;22.50;;;;;;;9.62;100.00;97437.08;1749340;80;21126;-69
2021/11/29 10:56:44;;;;;;;43.50;23.98;;;;;;;9.64;100.00;97437.80;1746358;80;21055;-69
2021/11/29 10:59:15;;;;;;;39.55;25.02;;;;;;;9.65;100.00;97428.95;1746018;80;21073;-69
2021/11/29 11:01:55;;;;;;;51.83;26.97;;;;;;;9.66;100.00;97430.61;1736064;82;26744;-69
2021/11/29 11:04:28;;;;;;;49.18;25.25;;;;;;;9.66;100.00;97422.73;1741561;80;21110;-69
2021/11/29 11:07:03;;;;;;;39.98;24.82;;;;;;;9.68;100.00;97417.36;1742215;80;21770;-67
2021/11/29 11:09:37;;;;;;;36.28;21.15;;;;;;;9.69;100.00;97423.83;1745307;80;21513;-71
2021/11/29 11:12:07;;;;;;;50.52;23.92;;;;;;;9.69;100.00;97417.25;1745602;80;21102;-70
2021/11/29 11:14:39;;;;;;;35.95;21.37;;;;;;;9.69;100.00;97409.37;1758191;80;21147;-68
2021/11/29 11:17:10;;;;;;;43.05;23.57;;;;;;;9.70;100.00;97401.84;1721783;82;21023;-70
2021/11/29 11:19:42;;;;;;;41.42;23.15;;;;;;;9.69;100.00;97408.06;1722563;82;22257;-69
2021/11/29 11:22:29;;;;;;;41.88;22.80;;;;;;;9.69;100.00;97398.86;1724649;82;21131;-68
2021/11/29 11:25:14;;;;;;;54.90;25.12;;;;;;;9.69;100.00;97396.23;1716453;82;21096;-69